sensor_id;sensor_type;location;lat;lon;timestamp;temperature;humidity
18287;DHT22;9269;50.838;12.094;2023-04-25T00:00:04;13.30;35.70
18287;DHT22;9269;50.838;12.094;2023-04-25T00:02:34;13.30;35.90
18287;DHT22;9269;50.838;12.094;2023-04-25T00:05:05;13.30;36.10
18287;DHT22;9269;50.838;12.094;2023-04-25T00:07:34;13.20;36.00
18287;DHT22;9269;50.838;12.094;2023-04-25T00:10:05;13.20;36.00
18287;DHT22;9269;50.838;12.094;2023-04-25T00:12:34;13.20;36.00
18287;DHT22;9269;50.838;12.094;2023-04-25T00:15:03;13.20;35.70
18287;DHT22;9269;50.838;12.094;2023-04-25T00:17:31;13.20;36.60
18287;DHT22;9269;50.838;12.094;2023-04-25T00:20:01;13.20;36.40
18287;DHT22;9269;50.838;12.094;2023-04-25T00:22:32;13.20;36.00
18287;DHT22;9269;50.838;12.094;2023-04-25T00:25:04;13.10;36.20
18287;DHT22;9269;50.838;12.094;2023-04-25T00:27:32;13.10;35.90
18287;DHT22;9269;50.838;12.094;2023-04-25T00:30:01;13.10;36.10
18287;DHT22;9269;50.838;12.094;2023-04-25T00:32:29;13.10;36.00
18287;DHT22;9269;50.838;12.094;2023-04-25T00:34:58;13.10;36.30
18287;DHT22;9269;50.838;12.094;2023-04-25T00:37:26;13.10;36.30
18287;DHT22;9269;50.838;12.094;2023-04-25T00:39:54;13.10;36.40
18287;DHT22;9269;50.838;12.094;2023-04-25T00:42:25;13.00;36.70
18287;DHT22;9269;50.838;12.094;2023-04-25T00:44:53;13.00;36.40
18287;DHT22;9269;50.838;12.094;2023-04-25T00:47:22;13.00;36.50
18287;DHT22;9269;50.838;12.094;2023-04-25T00:49:51;13.00;36.80
18287;DHT22;9269;50.838;12.094;2023-04-25T00:52:20;13.00;36.60
18287;DHT22;9269;50.838;12.094;2023-04-25T00:54:49;13.10;36.90
18287;DHT22;9269;50.838;12.094;2023-04-25T00:57:18;13.00;36.80
18287;DHT22;9269;50.838;12.094;2023-04-25T00:59:48;12.90;36.70
18287;DHT22;9269;50.838;12.094;2023-04-25T01:02:19;13.00;36.70
18287;DHT22;9269;50.838;12.094;2023-04-25T01:04:48;13.00;36.90
18287;DHT22;9269;50.838;12.094;2023-04-25T01:07:17;13.00;36.90
18287;DHT22;9269;50.838;12.094;2023-04-25T01:09:46;13.10;37.10
18287;DHT22;9269;50.838;12.094;2023-04-25T01:12:14;13.10;36.70
18287;DHT22;9269;50.838;12.094;2023-04-25T01:14:43;13.10;37.10
18287;DHT22;9269;50.838;12.094;2023-04-25T01:17:19;13.10;36.90
18287;DHT22;9269;50.838;12.094;2023-04-25T01:19:48;13.10;36.90
18287;DHT22;9269;50.838;12.094;2023-04-25T01:22:19;13.00;37.10
18287;DHT22;9269;50.838;12.094;2023-04-25T01:25:04;13.00;37.00
18287;DHT22;9269;50.838;12.094;2023-04-25T01:27:33;13.00;37.10
18287;DHT22;9269;50.838;12.094;2023-04-25T01:30:02;13.00;36.90
18287;DHT22;9269;50.838;12.094;2023-04-25T01:32:31;13.00;37.00
18287;DHT22;9269;50.838;12.094;2023-04-25T01:35:06;13.00;37.20
18287;DHT22;9269;50.838;12.094;2023-04-25T01:37:37;13.00;37.30
18287;DHT22;9269;50.838;12.094;2023-04-25T01:40:08;13.00;37.30
18287;DHT22;9269;50.838;12.094;2023-04-25T01:42:39;13.00;37.30
18287;DHT22;9269;50.838;12.094;2023-04-25T01:45:09;13.10;37.60
18287;DHT22;9269;50.838;12.094;2023-04-25T01:47:57;13.10;37.20
18287;DHT22;9269;50.838;12.094;2023-04-25T01:50:26;13.10;37.50
18287;DHT22;9269;50.838;12.094;2023-04-25T01:52:57;13.10;37.20
18287;DHT22;9269;50.838;12.094;2023-04-25T01:55:26;13.20;37.30
18287;DHT22;9269;50.838;12.094;2023-04-25T01:57:54;13.10;37.60
18287;DHT22;9269;50.838;12.094;2023-04-25T02:00:23;13.10;37.60
18287;DHT22;9269;50.838;12.094;2023-04-25T02:02:52;13.10;37.50
18287;DHT22;9269;50.838;12.094;2023-04-25T02:05:22;13.10;37.70
18287;DHT22;9269;50.838;12.094;2023-04-25T02:07:51;13.10;37.60
18287;DHT22;9269;50.838;12.094;2023-04-25T02:10:21;13.10;37.50
18287;DHT22;9269;50.838;12.094;2023-04-25T02:12:50;13.10;37.70
18287;DHT22;9269;50.838;12.094;2023-04-25T02:15:18;13.10;37.80
18287;DHT22;9269;50.838;12.094;2023-04-25T02:17:47;13.10;37.50
18287;DHT22;9269;50.838;12.094;2023-04-25T02:20:16;13.10;37.70
18287;DHT22;9269;50.838;12.094;2023-04-25T02:22:44;13.20;37.70
18287;DHT22;9269;50.838;12.094;2023-04-25T02:25:13;13.10;37.80
18287;DHT22;9269;50.838;12.094;2023-04-25T02:27:44;13.10;37.90
18287;DHT22;9269;50.838;12.094;2023-04-25T02:30:13;13.20;38.10
18287;DHT22;9269;50.838;12.094;2023-04-25T02:32:46;13.10;37.80
18287;DHT22;9269;50.838;12.094;2023-04-25T02:35:15;13.10;38.10
18287;DHT22;9269;50.838;12.094;2023-04-25T02:37:43;13.20;37.90
18287;DHT22;9269;50.838;12.094;2023-04-25T02:40:12;13.10;38.20
18287;DHT22;9269;50.838;12.094;2023-04-25T02:42:40;13.20;38.40
18287;DHT22;9269;50.838;12.094;2023-04-25T02:45:10;13.10;39.20
18287;DHT22;9269;50.838;12.094;2023-04-25T02:47:39;13.20;38.80
18287;DHT22;9269;50.838;12.094;2023-04-25T02:50:23;13.20;38.70
18287;DHT22;9269;50.838;12.094;2023-04-25T02:52:51;13.20;38.80
18287;DHT22;9269;50.838;12.094;2023-04-25T02:55:19;13.20;38.80
18287;DHT22;9269;50.838;12.094;2023-04-25T02:57:50;13.20;38.60
18287;DHT22;9269;50.838;12.094;2023-04-25T03:00:21;13.20;38.70
18287;DHT22;9269;50.838;12.094;2023-04-25T03:02:50;13.10;38.90
18287;DHT22;9269;50.838;12.094;2023-04-25T03:05:19;13.20;38.70
18287;DHT22;9269;50.838;12.094;2023-04-25T03:07:47;13.20;38.90
18287;DHT22;9269;50.838;12.094;2023-04-25T03:10:16;13.10;38.90
18287;DHT22;9269;50.838;12.094;2023-04-25T03:12:44;13.10;39.00
18287;DHT22;9269;50.838;12.094;2023-04-25T03:15:12;13.10;38.80
18287;DHT22;9269;50.838;12.094;2023-04-25T03:17:42;13.20;38.70
18287;DHT22;9269;50.838;12.094;2023-04-25T03:20:13;13.20;38.80
18287;DHT22;9269;50.838;12.094;2023-04-25T03:22:42;13.20;39.20
18287;DHT22;9269;50.838;12.094;2023-04-25T03:25:12;13.20;39.10
18287;DHT22;9269;50.838;12.094;2023-04-25T03:27:40;13.20;39.30
18287;DHT22;9269;50.838;12.094;2023-04-25T03:30:09;13.20;39.70
18287;DHT22;9269;50.838;12.094;2023-04-25T03:32:39;13.10;39.60
18287;DHT22;9269;50.838;12.094;2023-04-25T03:35:09;13.20;39.40
18287;DHT22;9269;50.838;12.094;2023-04-25T03:37:37;13.30;39.30
18287;DHT22;9269;50.838;12.094;2023-04-25T03:40:08;13.20;39.50
18287;DHT22;9269;50.838;12.094;2023-04-25T03:42:36;13.20;39.60
18287;DHT22;9269;50.838;12.094;2023-04-25T03:45:10;13.10;39.10
18287;DHT22;9269;50.838;12.094;2023-04-25T03:47:38;13.20;39.40
18287;DHT22;9269;50.838;12.094;2023-04-25T03:50:08;13.10;39.40
18287;DHT22;9269;50.838;12.094;2023-04-25T03:52:37;13.20;39.10
18287;DHT22;9269;50.838;12.094;2023-04-25T03:55:06;13.20;39.50
18287;DHT22;9269;50.838;12.094;2023-04-25T03:57:34;13.20;39.70
18287;DHT22;9269;50.838;12.094;2023-04-25T04:00:03;13.20;39.40
18287;DHT22;9269;50.838;12.094;2023-04-25T04:02:33;13.20;39.60
18287;DHT22;9269;50.838;12.094;2023-04-25T04:05:04;13.20;39.40
18287;DHT22;9269;50.838;12.094;2023-04-25T04:07:34;13.20;39.90
18287;DHT22;9269;50.838;12.094;2023-04-25T04:10:07;13.30;39.90
18287;DHT22;9269;50.838;12.094;2023-04-25T04:12:36;13.30;40.50
18287;DHT22;9269;50.838;12.094;2023-04-25T04:15:06;13.20;40.30
18287;DHT22;9269;50.838;12.094;2023-04-25T04:17:34;13.30;40.50
18287;DHT22;9269;50.838;12.094;2023-04-25T04:20:03;13.20;40.40
18287;DHT22;9269;50.838;12.094;2023-04-25T04:22:35;13.30;40.20
18287;DHT22;9269;50.838;12.094;2023-04-25T04:25:05;13.20;40.00
18287;DHT22;9269;50.838;12.094;2023-04-25T04:27:34;13.20;40.00
18287;DHT22;9269;50.838;12.094;2023-04-25T04:30:03;13.20;39.90
18287;DHT22;9269;50.838;12.094;2023-04-25T04:32:31;13.20;39.70
18287;DHT22;9269;50.838;12.094;2023-04-25T04:35:02;13.10;39.70
18287;DHT22;9269;50.838;12.094;2023-04-25T04:37:31;13.10;39.90
18287;DHT22;9269;50.838;12.094;2023-04-25T04:40:01;13.10;40.20
18287;DHT22;9269;50.838;12.094;2023-04-25T04:42:33;13.10;40.20
18287;DHT22;9269;50.838;12.094;2023-04-25T04:45:03;13.10;40.00
18287;DHT22;9269;50.838;12.094;2023-04-25T04:47:32;13.20;40.00
18287;DHT22;9269;50.838;12.094;2023-04-25T04:50:01;13.10;39.70
18287;DHT22;9269;50.838;12.094;2023-04-25T04:52:29;13.20;39.80
18287;DHT22;9269;50.838;12.094;2023-04-25T04:54:58;13.30;39.90
18287;DHT22;9269;50.838;12.094;2023-04-25T04:57:28;13.20;39.20
18287;DHT22;9269;50.838;12.094;2023-04-25T04:59:56;13.30;39.00
18287;DHT22;9269;50.838;12.094;2023-04-25T05:02:25;13.30;39.00
18287;DHT22;9269;50.838;12.094;2023-04-25T05:04:53;13.40;38.80
18287;DHT22;9269;50.838;12.094;2023-04-25T05:07:21;13.40;38.50
18287;DHT22;9269;50.838;12.094;2023-04-25T05:09:50;13.40;38.00
18287;DHT22;9269;50.838;12.094;2023-04-25T05:12:18;13.50;38.10
18287;DHT22;9269;50.838;12.094;2023-04-25T05:14:48;13.50;38.20
18287;DHT22;9269;50.838;12.094;2023-04-25T05:17:16;13.50;38.50
18287;DHT22;9269;50.838;12.094;2023-04-25T05:19:45;13.50;38.40
18287;DHT22;9269;50.838;12.094;2023-04-25T05:22:13;13.50;38.30
18287;DHT22;9269;50.838;12.094;2023-04-25T05:24:42;13.60;38.20
18287;DHT22;9269;50.838;12.094;2023-04-25T05:27:10;13.50;38.20
18287;DHT22;9269;50.838;12.094;2023-04-25T05:29:39;13.50;38.00
18287;DHT22;9269;50.838;12.094;2023-04-25T05:32:08;13.50;38.10
18287;DHT22;9269;50.838;12.094;2023-04-25T05:34:37;13.60;38.10
18287;DHT22;9269;50.838;12.094;2023-04-25T05:37:06;13.50;37.70
18287;DHT22;9269;50.838;12.094;2023-04-25T05:39:34;13.60;37.80
18287;DHT22;9269;50.838;12.094;2023-04-25T05:42:03;13.60;37.90
18287;DHT22;9269;50.838;12.094;2023-04-25T05:44:31;13.60;37.90
18287;DHT22;9269;50.838;12.094;2023-04-25T05:47:00;13.60;37.90
18287;DHT22;9269;50.838;12.094;2023-04-25T05:49:30;13.60;37.60
18287;DHT22;9269;50.838;12.094;2023-04-25T05:51:58;13.70;37.60
18287;DHT22;9269;50.838;12.094;2023-04-25T05:54:26;13.80;37.60
18287;DHT22;9269;50.838;12.094;2023-04-25T05:56:56;13.60;37.10
18287;DHT22;9269;50.838;12.094;2023-04-25T05:59:25;13.80;37.10
18287;DHT22;9269;50.838;12.094;2023-04-25T06:01:53;13.70;37.10
18287;DHT22;9269;50.838;12.094;2023-04-25T06:04:22;13.80;37.20
18287;DHT22;9269;50.838;12.094;2023-04-25T06:06:52;13.80;36.80
18287;DHT22;9269;50.838;12.094;2023-04-25T06:09:21;13.70;37.00
18287;DHT22;9269;50.838;12.094;2023-04-25T06:11:50;13.70;37.00
18287;DHT22;9269;50.838;12.094;2023-04-25T06:14:19;13.60;36.80
18287;DHT22;9269;50.838;12.094;2023-04-25T06:16:47;13.70;36.90
18287;DHT22;9269;50.838;12.094;2023-04-25T06:19:15;13.70;36.70
18287;DHT22;9269;50.838;12.094;2023-04-25T06:21:44;13.70;36.70
18287;DHT22;9269;50.838;12.094;2023-04-25T06:24:14;13.80;36.70
18287;DHT22;9269;50.838;12.094;2023-04-25T06:26:43;13.90;36.80
18287;DHT22;9269;50.838;12.094;2023-04-25T06:29:11;13.90;36.50
18287;DHT22;9269;50.838;12.094;2023-04-25T06:31:39;14.00;36.30
18287;DHT22;9269;50.838;12.094;2023-04-25T06:34:08;14.00;36.50
18287;DHT22;9269;50.838;12.094;2023-04-25T06:36:36;14.20;36.20
18287;DHT22;9269;50.838;12.094;2023-04-25T06:39:05;14.30;36.20
18287;DHT22;9269;50.838;12.094;2023-04-25T06:41:35;14.40;36.30
18287;DHT22;9269;50.838;12.094;2023-04-25T06:44:03;14.60;36.00
18287;DHT22;9269;50.838;12.094;2023-04-25T06:46:32;14.60;35.70
18287;DHT22;9269;50.838;12.094;2023-04-25T06:49:00;14.60;35.20
18287;DHT22;9269;50.838;12.094;2023-04-25T06:51:30;14.50;34.90
18287;DHT22;9269;50.838;12.094;2023-04-25T06:53:58;14.40;35.00
18287;DHT22;9269;50.838;12.094;2023-04-25T06:56:28;14.50;34.90
18287;DHT22;9269;50.838;12.094;2023-04-25T06:58:59;14.50;34.90
18287;DHT22;9269;50.838;12.094;2023-04-25T07:01:28;14.60;34.60
18287;DHT22;9269;50.838;12.094;2023-04-25T07:03:57;14.50;34.50
18287;DHT22;9269;50.838;12.094;2023-04-25T07:06:26;14.50;34.30
18287;DHT22;9269;50.838;12.094;2023-04-25T07:08:55;14.50;34.00
18287;DHT22;9269;50.838;12.094;2023-04-25T07:11:23;14.50;33.80
18287;DHT22;9269;50.838;12.094;2023-04-25T07:13:52;14.60;33.10
18287;DHT22;9269;50.838;12.094;2023-04-25T07:16:22;14.60;32.90
18287;DHT22;9269;50.838;12.094;2023-04-25T07:18:51;14.70;33.30
18287;DHT22;9269;50.838;12.094;2023-04-25T07:21:20;14.60;33.30
18287;DHT22;9269;50.838;12.094;2023-04-25T07:23:48;14.70;33.00
18287;DHT22;9269;50.838;12.094;2023-04-25T07:26:16;14.70;32.70
18287;DHT22;9269;50.838;12.094;2023-04-25T07:28:45;14.70;32.70
18287;DHT22;9269;50.838;12.094;2023-04-25T07:31:18;14.80;32.70
18287;DHT22;9269;50.838;12.094;2023-04-25T07:33:47;14.80;32.90
18287;DHT22;9269;50.838;12.094;2023-04-25T07:36:16;14.80;32.10
18287;DHT22;9269;50.838;12.094;2023-04-25T07:38:44;14.70;32.60
18287;DHT22;9269;50.838;12.094;2023-04-25T07:41:13;14.70;31.90
18287;DHT22;9269;50.838;12.094;2023-04-25T07:43:41;14.70;32.40
18287;DHT22;9269;50.838;12.094;2023-04-25T07:46:10;14.50;32.10
18287;DHT22;9269;50.838;12.094;2023-04-25T07:48:39;14.40;32.50
18287;DHT22;9269;50.838;12.094;2023-04-25T07:51:09;14.30;32.60
18287;DHT22;9269;50.838;12.094;2023-04-25T07:53:37;14.20;32.60
18287;DHT22;9269;50.838;12.094;2023-04-25T07:56:07;14.20;33.00
18287;DHT22;9269;50.838;12.094;2023-04-25T07:58:36;14.20;33.00
18287;DHT22;9269;50.838;12.094;2023-04-25T08:01:05;14.20;32.80
18287;DHT22;9269;50.838;12.094;2023-04-25T08:03:33;14.20;33.00
18287;DHT22;9269;50.838;12.094;2023-04-25T08:06:02;14.20;33.30
18287;DHT22;9269;50.838;12.094;2023-04-25T08:08:35;14.40;33.00
18287;DHT22;9269;50.838;12.094;2023-04-25T08:11:04;14.30;33.10
18287;DHT22;9269;50.838;12.094;2023-04-25T08:13:32;14.30;32.60
18287;DHT22;9269;50.838;12.094;2023-04-25T08:16:01;14.40;33.10
18287;DHT22;9269;50.838;12.094;2023-04-25T08:18:29;14.50;33.00
18287;DHT22;9269;50.838;12.094;2023-04-25T08:20:58;14.50;33.30
18287;DHT22;9269;50.838;12.094;2023-04-25T08:23:28;14.50;32.90
18287;DHT22;9269;50.838;12.094;2023-04-25T08:25:57;14.50;33.20
18287;DHT22;9269;50.838;12.094;2023-04-25T08:28:27;14.60;32.80
18287;DHT22;9269;50.838;12.094;2023-04-25T08:30:55;14.50;32.70
18287;DHT22;9269;50.838;12.094;2023-04-25T08:33:24;14.60;32.70
18287;DHT22;9269;50.838;12.094;2023-04-25T08:35:53;14.50;32.70
18287;DHT22;9269;50.838;12.094;2023-04-25T08:38:21;14.40;32.70
18287;DHT22;9269;50.838;12.094;2023-04-25T08:40:50;14.40;33.20
18287;DHT22;9269;50.838;12.094;2023-04-25T08:43:23;14.30;32.80
18287;DHT22;9269;50.838;12.094;2023-04-25T08:45:53;14.30;33.30
18287;DHT22;9269;50.838;12.094;2023-04-25T08:48:24;14.30;33.20
18287;DHT22;9269;50.838;12.094;2023-04-25T08:50:56;14.20;33.00
18287;DHT22;9269;50.838;12.094;2023-04-25T08:53:26;14.20;33.40
18287;DHT22;9269;50.838;12.094;2023-04-25T08:55:56;14.10;33.50
18287;DHT22;9269;50.838;12.094;2023-04-25T08:58:27;14.10;33.50
18287;DHT22;9269;50.838;12.094;2023-04-25T09:00:55;14.10;33.20
18287;DHT22;9269;50.838;12.094;2023-04-25T09:03:24;14.10;33.40
18287;DHT22;9269;50.838;12.094;2023-04-25T09:05:54;14.10;33.60
18287;DHT22;9269;50.838;12.094;2023-04-25T09:08:23;14.20;33.40
18287;DHT22;9269;50.838;12.094;2023-04-25T09:10:51;14.00;33.40
18287;DHT22;9269;50.838;12.094;2023-04-25T09:13:24;14.00;33.50
18287;DHT22;9269;50.838;12.094;2023-04-25T09:15:56;14.10;33.50
18287;DHT22;9269;50.838;12.094;2023-04-25T09:18:27;13.90;33.60
18287;DHT22;9269;50.838;12.094;2023-04-25T09:21:05;13.90;33.10
18287;DHT22;9269;50.838;12.094;2023-04-25T09:23:43;13.80;33.80
18287;DHT22;9269;50.838;12.094;2023-04-25T09:26:14;13.80;33.60
18287;DHT22;9269;50.838;12.094;2023-04-25T09:28:44;13.90;33.80
18287;DHT22;9269;50.838;12.094;2023-04-25T09:31:21;13.90;33.40
18287;DHT22;9269;50.838;12.094;2023-04-25T09:33:58;13.90;33.50
18287;DHT22;9269;50.838;12.094;2023-04-25T09:36:30;14.00;33.80
18287;DHT22;9269;50.838;12.094;2023-04-25T09:38:59;14.00;33.80
18287;DHT22;9269;50.838;12.094;2023-04-25T09:41:31;13.90;33.90
18287;DHT22;9269;50.838;12.094;2023-04-25T09:44:01;14.00;33.60
18287;DHT22;9269;50.838;12.094;2023-04-25T09:46:35;14.00;33.80
18287;DHT22;9269;50.838;12.094;2023-04-25T09:49:06;14.00;33.40
18287;DHT22;9269;50.838;12.094;2023-04-25T09:51:35;13.90;33.80
18287;DHT22;9269;50.838;12.094;2023-04-25T09:54:03;13.90;33.80
18287;DHT22;9269;50.838;12.094;2023-04-25T09:56:36;14.00;33.80
18287;DHT22;9269;50.838;12.094;2023-04-25T09:59:05;14.00;33.80
18287;DHT22;9269;50.838;12.094;2023-04-25T10:01:38;13.90;34.10
18287;DHT22;9269;50.838;12.094;2023-04-25T10:04:10;14.00;33.80
18287;DHT22;9269;50.838;12.094;2023-04-25T10:06:42;13.90;34.10
18287;DHT22;9269;50.838;12.094;2023-04-25T10:09:12;13.90;34.10
18287;DHT22;9269;50.838;12.094;2023-04-25T10:11:41;13.90;34.00
18287;DHT22;9269;50.838;12.094;2023-04-25T10:14:09;14.00;34.40
18287;DHT22;9269;50.838;12.094;2023-04-25T10:16:40;13.90;34.10
18287;DHT22;9269;50.838;12.094;2023-04-25T10:19:09;14.00;34.20
18287;DHT22;9269;50.838;12.094;2023-04-25T10:21:44;14.10;34.20
18287;DHT22;9269;50.838;12.094;2023-04-25T10:24:14;14.10;34.30
18287;DHT22;9269;50.838;12.094;2023-04-25T10:26:43;14.20;33.90
18287;DHT22;9269;50.838;12.094;2023-04-25T10:29:22;14.20;34.10
18287;DHT22;9269;50.838;12.094;2023-04-25T10:31:52;14.30;34.10
18287;DHT22;9269;50.838;12.094;2023-04-25T10:34:25;14.40;33.90
18287;DHT22;9269;50.838;12.094;2023-04-25T10:37:05;14.60;34.40
18287;DHT22;9269;50.838;12.094;2023-04-25T10:39:38;14.70;34.20
18287;DHT22;9269;50.838;12.094;2023-04-25T10:42:07;14.80;34.00
18287;DHT22;9269;50.838;12.094;2023-04-25T10:44:37;14.90;34.10
18287;DHT22;9269;50.838;12.094;2023-04-25T10:47:08;14.90;34.00
18287;DHT22;9269;50.838;12.094;2023-04-25T10:49:41;15.00;33.90
18287;DHT22;9269;50.838;12.094;2023-04-25T10:52:12;14.80;33.60
18287;DHT22;9269;50.838;12.094;2023-04-25T10:54:41;14.80;33.90
18287;DHT22;9269;50.838;12.094;2023-04-25T10:57:38;14.70;33.70
18287;DHT22;9269;50.838;12.094;2023-04-25T11:00:10;14.60;33.80
18287;DHT22;9269;50.838;12.094;2023-04-25T11:02:44;14.60;33.90
18287;DHT22;9269;50.838;12.094;2023-04-25T11:05:23;14.60;33.60
18287;DHT22;9269;50.838;12.094;2023-04-25T11:07:55;14.60;33.90
18287;DHT22;9269;50.838;12.094;2023-04-25T11:10:28;14.60;33.60
18287;DHT22;9269;50.838;12.094;2023-04-25T11:12:57;14.60;33.70
18287;DHT22;9269;50.838;12.094;2023-04-25T11:15:27;14.50;33.70
18287;DHT22;9269;50.838;12.094;2023-04-25T11:17:57;14.60;33.90
18287;DHT22;9269;50.838;12.094;2023-04-25T11:20:26;14.50;33.80
18287;DHT22;9269;50.838;12.094;2023-04-25T11:22:57;14.60;33.90
18287;DHT22;9269;50.838;12.094;2023-04-25T11:25:29;14.50;33.90
18287;DHT22;9269;50.838;12.094;2023-04-25T11:28:00;14.50;33.80
18287;DHT22;9269;50.838;12.094;2023-04-25T11:30:30;14.50;33.90
18287;DHT22;9269;50.838;12.094;2023-04-25T11:33:01;14.50;33.90
18287;DHT22;9269;50.838;12.094;2023-04-25T11:35:31;14.60;33.90
18287;DHT22;9269;50.838;12.094;2023-04-25T11:38:01;14.60;34.00
18287;DHT22;9269;50.838;12.094;2023-04-25T11:40:30;14.60;33.80
18287;DHT22;9269;50.838;12.094;2023-04-25T11:43:00;14.60;33.70
18287;DHT22;9269;50.838;12.094;2023-04-25T11:45:29;14.60;33.70
18287;DHT22;9269;50.838;12.094;2023-04-25T11:47:58;14.60;33.80
18287;DHT22;9269;50.838;12.094;2023-04-25T11:50:29;14.60;34.00
18287;DHT22;9269;50.838;12.094;2023-04-25T11:52:57;14.70;33.50
18287;DHT22;9269;50.838;12.094;2023-04-25T11:55:26;14.80;33.90
18287;DHT22;9269;50.838;12.094;2023-04-25T11:57:54;14.90;33.70
18287;DHT22;9269;50.838;12.094;2023-04-25T12:00:24;14.90;33.40
18287;DHT22;9269;50.838;12.094;2023-04-25T12:02:54;15.00;33.40
18287;DHT22;9269;50.838;12.094;2023-04-25T12:05:25;15.00;33.70
18287;DHT22;9269;50.838;12.094;2023-04-25T12:08:22;15.00;33.70
18287;DHT22;9269;50.838;12.094;2023-04-25T12:10:50;15.10;33.70
18287;DHT22;9269;50.838;12.094;2023-04-25T12:13:20;15.10;33.50
18287;DHT22;9269;50.838;12.094;2023-04-25T12:15:49;15.10;33.20
18287;DHT22;9269;50.838;12.094;2023-04-25T12:18:19;15.20;32.70
18287;DHT22;9269;50.838;12.094;2023-04-25T12:20:49;15.10;33.00
18287;DHT22;9269;50.838;12.094;2023-04-25T12:23:26;15.10;32.30
18287;DHT22;9269;50.838;12.094;2023-04-25T12:25:56;15.20;32.70
18287;DHT22;9269;50.838;12.094;2023-04-25T12:28:25;15.20;32.40
18287;DHT22;9269;50.838;12.094;2023-04-25T12:30:56;15.10;31.80
18287;DHT22;9269;50.838;12.094;2023-04-25T12:33:29;15.10;31.60
18287;DHT22;9269;50.838;12.094;2023-04-25T12:35:58;15.10;31.90
18287;DHT22;9269;50.838;12.094;2023-04-25T12:38:30;15.00;31.20
18287;DHT22;9269;50.838;12.094;2023-04-25T12:41:01;15.00;31.40
18287;DHT22;9269;50.838;12.094;2023-04-25T12:43:30;15.00;31.40
18287;DHT22;9269;50.838;12.094;2023-04-25T12:45:58;15.10;30.70
18287;DHT22;9269;50.838;12.094;2023-04-25T12:48:27;15.10;30.60
18287;DHT22;9269;50.838;12.094;2023-04-25T12:50:55;15.20;30.60
18287;DHT22;9269;50.838;12.094;2023-04-25T12:53:23;15.50;28.80
18287;DHT22;9269;50.838;12.094;2023-04-25T12:55:53;15.60;27.90
18287;DHT22;9269;50.838;12.094;2023-04-25T12:58:27;15.60;28.10
18287;DHT22;9269;50.838;12.094;2023-04-25T13:00:55;15.70;27.50
18287;DHT22;9269;50.838;12.094;2023-04-25T13:03:24;15.70;27.20
18287;DHT22;9269;50.838;12.094;2023-04-25T13:05:52;15.80;27.30
18287;DHT22;9269;50.838;12.094;2023-04-25T13:08:21;15.90;26.80
18287;DHT22;9269;50.838;12.094;2023-04-25T13:10:49;16.00;26.60
18287;DHT22;9269;50.838;12.094;2023-04-25T13:13:19;16.10;26.50
18287;DHT22;9269;50.838;12.094;2023-04-25T13:15:48;16.10;25.70
18287;DHT22;9269;50.838;12.094;2023-04-25T13:18:16;16.20;25.70
18287;DHT22;9269;50.838;12.094;2023-04-25T13:20:44;16.20;25.20
18287;DHT22;9269;50.838;12.094;2023-04-25T13:23:13;16.20;25.10
18287;DHT22;9269;50.838;12.094;2023-04-25T13:25:41;16.40;25.40
18287;DHT22;9269;50.838;12.094;2023-04-25T13:28:09;16.40;25.10
18287;DHT22;9269;50.838;12.094;2023-04-25T13:30:39;16.40;25.20
18287;DHT22;9269;50.838;12.094;2023-04-25T13:33:08;16.40;25.40
18287;DHT22;9269;50.838;12.094;2023-04-25T13:35:38;16.40;25.20
18287;DHT22;9269;50.838;12.094;2023-04-25T13:38:06;16.30;25.20
18287;DHT22;9269;50.838;12.094;2023-04-25T13:40:36;15.90;25.00
18287;DHT22;9269;50.838;12.094;2023-04-25T13:43:05;15.80;25.60
18287;DHT22;9269;50.838;12.094;2023-04-25T13:45:35;15.50;25.40
18287;DHT22;9269;50.838;12.094;2023-04-25T13:48:05;15.40;25.20
18287;DHT22;9269;50.838;12.094;2023-04-25T13:50:34;15.30;26.20
18287;DHT22;9269;50.838;12.094;2023-04-25T13:53:03;15.10;26.30
18287;DHT22;9269;50.838;12.094;2023-04-25T13:55:31;15.00;26.00
18287;DHT22;9269;50.838;12.094;2023-04-25T13:58:00;14.80;25.90
18287;DHT22;9269;50.838;12.094;2023-04-25T14:00:37;14.80;25.40
18287;DHT22;9269;50.838;12.094;2023-04-25T14:03:08;14.70;25.20
18287;DHT22;9269;50.838;12.094;2023-04-25T14:05:37;14.80;25.80
18287;DHT22;9269;50.838;12.094;2023-04-25T14:08:07;14.90;25.80
18287;DHT22;9269;50.838;12.094;2023-04-25T14:10:38;15.10;25.60
18287;DHT22;9269;50.838;12.094;2023-04-25T14:13:07;15.20;25.60
18287;DHT22;9269;50.838;12.094;2023-04-25T14:15:37;15.40;23.90
18287;DHT22;9269;50.838;12.094;2023-04-25T14:18:05;15.60;23.10
18287;DHT22;9269;50.838;12.094;2023-04-25T14:20:35;15.70;23.00
18287;DHT22;9269;50.838;12.094;2023-04-25T14:23:04;15.70;22.60
18287;DHT22;9269;50.838;12.094;2023-04-25T14:25:34;15.60;22.70
18287;DHT22;9269;50.838;12.094;2023-04-25T14:28:03;15.80;22.20
18287;DHT22;9269;50.838;12.094;2023-04-25T14:30:32;15.70;22.20
18287;DHT22;9269;50.838;12.094;2023-04-25T14:33:01;15.60;21.90
18287;DHT22;9269;50.838;12.094;2023-04-25T14:35:30;15.60;21.50
18287;DHT22;9269;50.838;12.094;2023-04-25T14:38:01;15.60;21.40
18287;DHT22;9269;50.838;12.094;2023-04-25T14:40:31;15.50;21.40
18287;DHT22;9269;50.838;12.094;2023-04-25T14:43:00;15.50;21.70
18287;DHT22;9269;50.838;12.094;2023-04-25T14:45:28;15.40;22.90
18287;DHT22;9269;50.838;12.094;2023-04-25T14:47:57;15.30;22.70
18287;DHT22;9269;50.838;12.094;2023-04-25T14:50:25;15.30;22.80
18287;DHT22;9269;50.838;12.094;2023-04-25T14:52:53;15.30;22.70
18287;DHT22;9269;50.838;12.094;2023-04-25T14:55:28;15.30;22.60
18287;DHT22;9269;50.838;12.094;2023-04-25T14:57:58;15.20;22.30
18287;DHT22;9269;50.838;12.094;2023-04-25T15:00:28;15.20;22.10
18287;DHT22;9269;50.838;12.094;2023-04-25T15:02:58;15.30;22.10
18287;DHT22;9269;50.838;12.094;2023-04-25T15:05:27;15.30;22.00
18287;DHT22;9269;50.838;12.094;2023-04-25T15:07:55;15.10;21.80
18287;DHT22;9269;50.838;12.094;2023-04-25T15:10:24;15.00;21.80
18287;DHT22;9269;50.838;12.094;2023-04-25T15:12:54;15.10;21.90
18287;DHT22;9269;50.838;12.094;2023-04-25T15:15:23;15.00;22.00
18287;DHT22;9269;50.838;12.094;2023-04-25T15:17:53;15.10;22.10
18287;DHT22;9269;50.838;12.094;2023-04-25T15:20:27;15.10;21.60
18287;DHT22;9269;50.838;12.094;2023-04-25T15:22:55;15.10;21.70
18287;DHT22;9269;50.838;12.094;2023-04-25T15:25:24;15.00;22.20
18287;DHT22;9269;50.838;12.094;2023-04-25T15:27:55;15.00;22.20
18287;DHT22;9269;50.838;12.094;2023-04-25T15:30:24;15.00;22.00
18287;DHT22;9269;50.838;12.094;2023-04-25T15:32:53;15.00;22.20
18287;DHT22;9269;50.838;12.094;2023-04-25T15:35:24;15.00;21.80
18287;DHT22;9269;50.838;12.094;2023-04-25T15:37:55;15.00;22.00
18287;DHT22;9269;50.838;12.094;2023-04-25T15:40:25;15.00;21.70
18287;DHT22;9269;50.838;12.094;2023-04-25T15:42:55;15.10;21.90
18287;DHT22;9269;50.838;12.094;2023-04-25T15:45:24;15.00;21.60